sensor_id;sensor_type;location;lat;lon;timestamp;P1;durP1;ratioP1;P2;durP2;ratioP2
67227;SDS011;54139;42.616;23.748;2023-06-22T00:02:16;15.68;;;14.45;;
67227;SDS011;54139;42.616;23.748;2023-06-22T00:04:42;17.40;;;15.75;;
67227;SDS011;54139;42.616;23.748;2023-06-22T00:07:08;16.77;;;15.27;;
67227;SDS011;54139;42.616;23.748;2023-06-22T00:09:33;17.42;;;15.90;;
67227;SDS011;54139;42.616;23.748;2023-06-22T00:11:59;18.65;;;16.90;;
67227;SDS011;54139;42.616;23.748;2023-06-22T00:14:25;19.10;;;17.50;;
67227;SDS011;54139;42.616;23.748;2023-06-22T00:16:50;17.88;;;16.40;;
67227;SDS011;54139;42.616;23.748;2023-06-22T00:19:20;17.10;;;15.60;;
67227;SDS011;54139;42.616;23.748;2023-06-22T00:21:47;16.45;;;15.15;;
67227;SDS011;54139;42.616;23.748;2023-06-22T00:24:13;17.92;;;16.23;;
67227;SDS011;54139;42.616;23.748;2023-06-22T00:26:38;18.08;;;16.48;;
67227;SDS011;54139;42.616;23.748;2023-06-22T00:29:04;17.65;;;16.08;;
67227;SDS011;54139;42.616;23.748;2023-06-22T00:31:29;17.85;;;15.95;;
67227;SDS011;54139;42.616;23.748;2023-06-22T00:33:54;18.75;;;17.15;;
67227;SDS011;54139;42.616;23.748;2023-06-22T00:36:20;18.20;;;16.52;;
67227;SDS011;54139;42.616;23.748;2023-06-22T00:38:45;15.48;;;14.18;;
67227;SDS011;54139;42.616;23.748;2023-06-22T00:41:11;18.20;;;16.70;;
67227;SDS011;54139;42.616;23.748;2023-06-22T00:43:36;18.52;;;16.92;;
67227;SDS011;54139;42.616;23.748;2023-06-22T00:46:02;18.50;;;17.00;;
67227;SDS011;54139;42.616;23.748;2023-06-22T00:48:28;17.70;;;16.13;;
67227;SDS011;54139;42.616;23.748;2023-06-22T00:50:53;19.58;;;17.83;;
67227;SDS011;54139;42.616;23.748;2023-06-22T00:53:20;19.10;;;17.40;;
67227;SDS011;54139;42.616;23.748;2023-06-22T00:55:46;18.73;;;17.13;;
67227;SDS011;54139;42.616;23.748;2023-06-22T00:58:12;18.05;;;16.33;;
67227;SDS011;54139;42.616;23.748;2023-06-22T01:00:39;19.77;;;18.08;;
67227;SDS011;54139;42.616;23.748;2023-06-22T01:03:05;18.55;;;17.05;;
67227;SDS011;54139;42.616;23.748;2023-06-22T01:05:34;19.60;;;17.85;;
67227;SDS011;54139;42.616;23.748;2023-06-22T01:16:01;19.20;;;17.52;;
67227;SDS011;54139;42.616;23.748;2023-06-22T01:18:29;20.20;;;18.50;;
67227;SDS011;54139;42.616;23.748;2023-06-22T01:20:57;18.80;;;17.40;;
67227;SDS011;54139;42.616;23.748;2023-06-22T01:29:04;18.92;;;17.40;;
67227;SDS011;54139;42.616;23.748;2023-06-22T01:31:33;20.27;;;18.58;;
67227;SDS011;54139;42.616;23.748;2023-06-22T01:34:01;20.23;;;18.23;;
67227;SDS011;54139;42.616;23.748;2023-06-22T01:36:29;21.77;;;17.60;;
67227;SDS011;54139;42.616;23.748;2023-06-22T01:38:56;19.73;;;18.15;;
67227;SDS011;54139;42.616;23.748;2023-06-22T01:41:24;21.15;;;19.15;;
67227;SDS011;54139;42.616;23.748;2023-06-22T01:43:50;20.92;;;18.77;;
67227;SDS011;54139;42.616;23.748;2023-06-22T01:46:16;20.17;;;18.38;;
67227;SDS011;54139;42.616;23.748;2023-06-22T01:48:44;20.35;;;18.42;;
67227;SDS011;54139;42.616;23.748;2023-06-22T01:51:10;19.10;;;17.15;;
67227;SDS011;54139;42.616;23.748;2023-06-22T01:53:35;19.73;;;17.85;;
67227;SDS011;54139;42.616;23.748;2023-06-22T01:56:00;19.42;;;17.83;;
67227;SDS011;54139;42.616;23.748;2023-06-22T01:58:26;20.95;;;18.92;;
67227;SDS011;54139;42.616;23.748;2023-06-22T02:00:57;21.67;;;19.58;;
67227;SDS011;54139;42.616;23.748;2023-06-22T02:03:30;20.33;;;18.27;;
67227;SDS011;54139;42.616;23.748;2023-06-22T02:06:08;21.35;;;19.50;;
67227;SDS011;54139;42.616;23.748;2023-06-22T02:08:40;20.65;;;18.83;;
67227;SDS011;54139;42.616;23.748;2023-06-22T02:11:07;21.10;;;19.30;;
67227;SDS011;54139;42.616;23.748;2023-06-22T02:13:34;20.25;;;18.60;;
67227;SDS011;54139;42.616;23.748;2023-06-22T02:16:00;19.88;;;17.83;;
67227;SDS011;54139;42.616;23.748;2023-06-22T02:18:26;20.20;;;18.50;;
67227;SDS011;54139;42.616;23.748;2023-06-22T02:20:51;20.27;;;18.42;;
67227;SDS011;54139;42.616;23.748;2023-06-22T02:23:17;18.85;;;17.05;;
67227;SDS011;54139;42.616;23.748;2023-06-22T02:25:43;20.08;;;18.08;;
67227;SDS011;54139;42.616;23.748;2023-06-22T02:28:09;20.08;;;18.38;;
67227;SDS011;54139;42.616;23.748;2023-06-22T02:30:35;20.92;;;19.02;;
67227;SDS011;54139;42.616;23.748;2023-06-22T02:33:00;21.88;;;19.95;;
67227;SDS011;54139;42.616;23.748;2023-06-22T02:35:26;20.38;;;18.70;;
67227;SDS011;54139;42.616;23.748;2023-06-22T02:37:56;18.85;;;17.23;;
67227;SDS011;54139;42.616;23.748;2023-06-22T02:40:23;19.48;;;18.00;;
67227;SDS011;54139;42.616;23.748;2023-06-22T02:42:48;20.02;;;18.33;;
67227;SDS011;54139;42.616;23.748;2023-06-22T02:45:13;21.67;;;19.58;;
67227;SDS011;54139;42.616;23.748;2023-06-22T02:47:39;18.90;;;17.27;;
67227;SDS011;54139;42.616;23.748;2023-06-22T02:50:05;19.42;;;17.60;;
67227;SDS011;54139;42.616;23.748;2023-06-22T02:52:31;17.42;;;15.85;;
67227;SDS011;54139;42.616;23.748;2023-06-22T02:54:56;20.52;;;18.73;;
67227;SDS011;54139;42.616;23.748;2023-06-22T02:57:22;19.70;;;17.88;;
67227;SDS011;54139;42.616;23.748;2023-06-22T02:59:47;18.92;;;17.33;;
67227;SDS011;54139;42.616;23.748;2023-06-22T03:02:13;20.20;;;18.30;;
67227;SDS011;54139;42.616;23.748;2023-06-22T03:04:38;19.83;;;17.85;;
67227;SDS011;54139;42.616;23.748;2023-06-22T03:07:04;18.73;;;17.02;;
67227;SDS011;54139;42.616;23.748;2023-06-22T03:09:29;20.85;;;18.80;;
67227;SDS011;54139;42.616;23.748;2023-06-22T03:11:55;18.73;;;17.10;;
67227;SDS011;54139;42.616;23.748;2023-06-22T03:14:21;20.05;;;18.10;;
67227;SDS011;54139;42.616;23.748;2023-06-22T03:16:46;18.25;;;16.52;;
67227;SDS011;54139;42.616;23.748;2023-06-22T03:19:12;18.88;;;16.65;;
67227;SDS011;54139;42.616;23.748;2023-06-22T03:21:38;20.08;;;18.13;;
67227;SDS011;54139;42.616;23.748;2023-06-22T03:24:05;19.25;;;17.67;;
67227;SDS011;54139;42.616;23.748;2023-06-22T03:26:31;18.60;;;16.85;;
67227;SDS011;54139;42.616;23.748;2023-06-22T03:28:56;17.92;;;16.20;;
67227;SDS011;54139;42.616;23.748;2023-06-22T03:31:22;14.60;;;13.10;;
67227;SDS011;54139;42.616;23.748;2023-06-22T03:33:48;16.70;;;11.73;;
67227;SDS011;54139;42.616;23.748;2023-06-22T03:36:15;13.38;;;12.30;;
67227;SDS011;54139;42.616;23.748;2023-06-22T03:38:47;14.85;;;13.57;;
67227;SDS011;54139;42.616;23.748;2023-06-22T03:41:13;11.80;;;10.88;;
67227;SDS011;54139;42.616;23.748;2023-06-22T03:43:39;11.93;;;10.95;;
67227;SDS011;54139;42.616;23.748;2023-06-22T03:46:04;12.68;;;11.77;;
67227;SDS011;54139;42.616;23.748;2023-06-22T03:48:30;13.70;;;12.57;;
67227;SDS011;54139;42.616;23.748;2023-06-22T03:50:56;11.88;;;10.77;;
67227;SDS011;54139;42.616;23.748;2023-06-22T03:53:21;11.45;;;10.40;;
67227;SDS011;54139;42.616;23.748;2023-06-22T03:55:50;11.85;;;10.82;;
67227;SDS011;54139;42.616;23.748;2023-06-22T03:58:16;12.93;;;12.07;;
67227;SDS011;54139;42.616;23.748;2023-06-22T04:00:54;11.52;;;10.52;;
67227;SDS011;54139;42.616;23.748;2023-06-22T04:03:19;11.57;;;10.55;;
67227;SDS011;54139;42.616;23.748;2023-06-22T04:05:45;13.27;;;12.18;;
67227;SDS011;54139;42.616;23.748;2023-06-22T04:08:12;11.30;;;10.40;;
67227;SDS011;54139;42.616;23.748;2023-06-22T04:10:38;11.85;;;11.02;;
67227;SDS011;54139;42.616;23.748;2023-06-22T04:13:04;10.57;;;9.88;;
67227;SDS011;54139;42.616;23.748;2023-06-22T04:15:29;10.48;;;9.77;;
67227;SDS011;54139;42.616;23.748;2023-06-22T04:17:55;10.57;;;9.77;;
67227;SDS011;54139;42.616;23.748;2023-06-22T04:20:21;9.98;;;9.07;;
67227;SDS011;54139;42.616;23.748;2023-06-22T04:22:47;9.95;;;9.20;;
67227;SDS011;54139;42.616;23.748;2023-06-22T04:25:12;10.98;;;10.07;;
67227;SDS011;54139;42.616;23.748;2023-06-22T04:27:39;10.27;;;9.40;;
67227;SDS011;54139;42.616;23.748;2023-06-22T04:30:07;10.25;;;9.38;;
67227;SDS011;54139;42.616;23.748;2023-06-22T04:32:33;11.45;;;10.48;;
67227;SDS011;54139;42.616;23.748;2023-06-22T04:35:01;10.68;;;9.80;;
67227;SDS011;54139;42.616;23.748;2023-06-22T04:37:31;13.18;;;11.88;;
67227;SDS011;54139;42.616;23.748;2023-06-22T04:39:57;11.60;;;10.85;;
67227;SDS011;54139;42.616;23.748;2023-06-22T04:42:22;15.25;;;13.50;;
67227;SDS011;54139;42.616;23.748;2023-06-22T04:44:48;12.77;;;11.68;;
67227;SDS011;54139;42.616;23.748;2023-06-22T04:47:13;13.25;;;11.90;;
67227;SDS011;54139;42.616;23.748;2023-06-22T04:49:39;12.32;;;9.98;;
67227;SDS011;54139;42.616;23.748;2023-06-22T04:52:06;17.15;;;10.05;;
67227;SDS011;54139;42.616;23.748;2023-06-22T04:54:33;10.82;;;9.82;;
67227;SDS011;54139;42.616;23.748;2023-06-22T04:56:59;11.82;;;10.88;;
67227;SDS011;54139;42.616;23.748;2023-06-22T04:59:26;9.50;;;8.65;;
67227;SDS011;54139;42.616;23.748;2023-06-22T05:01:56;10.13;;;9.02;;
67227;SDS011;54139;42.616;23.748;2023-06-22T05:04:25;9.98;;;8.90;;
67227;SDS011;54139;42.616;23.748;2023-06-22T05:06:52;9.43;;;8.48;;
67227;SDS011;54139;42.616;23.748;2023-06-22T05:09:19;10.40;;;9.50;;
67227;SDS011;54139;42.616;23.748;2023-06-22T05:11:44;9.65;;;8.90;;
67227;SDS011;54139;42.616;23.748;2023-06-22T05:14:10;10.73;;;9.93;;
67227;SDS011;54139;42.616;23.748;2023-06-22T05:16:36;9.15;;;8.55;;
67227;SDS011;54139;42.616;23.748;2023-06-22T05:19:02;9.70;;;8.82;;
67227;SDS011;54139;42.616;23.748;2023-06-22T05:21:29;9.40;;;8.70;;
67227;SDS011;54139;42.616;23.748;2023-06-22T05:23:55;8.70;;;8.10;;
67227;SDS011;54139;42.616;23.748;2023-06-22T05:26:24;9.05;;;8.38;;
67227;SDS011;54139;42.616;23.748;2023-06-22T05:28:50;9.43;;;8.57;;
67227;SDS011;54139;42.616;23.748;2023-06-22T05:31:16;8.85;;;8.15;;
67227;SDS011;54139;42.616;23.748;2023-06-22T05:33:43;9.70;;;8.13;;
67227;SDS011;54139;42.616;23.748;2023-06-22T05:36:09;8.75;;;8.02;;
67227;SDS011;54139;42.616;23.748;2023-06-22T05:38:35;9.52;;;8.75;;
67227;SDS011;54139;42.616;23.748;2023-06-22T05:41:01;9.13;;;8.50;;
67227;SDS011;54139;42.616;23.748;2023-06-22T05:43:27;8.70;;;8.00;;
67227;SDS011;54139;42.616;23.748;2023-06-22T05:45:53;9.00;;;7.93;;
67227;SDS011;54139;42.616;23.748;2023-06-22T05:48:18;8.82;;;8.20;;
67227;SDS011;54139;42.616;23.748;2023-06-22T05:50:43;7.53;;;6.83;;
67227;SDS011;54139;42.616;23.748;2023-06-22T05:53:09;7.73;;;7.13;;
67227;SDS011;54139;42.616;23.748;2023-06-22T05:55:34;7.63;;;6.97;;
67227;SDS011;54139;42.616;23.748;2023-06-22T05:58:00;7.50;;;6.90;;
67227;SDS011;54139;42.616;23.748;2023-06-22T06:00:25;7.33;;;6.93;;
67227;SDS011;54139;42.616;23.748;2023-06-22T06:02:51;6.53;;;6.23;;
67227;SDS011;54139;42.616;23.748;2023-06-22T06:05:16;6.93;;;6.43;;
67227;SDS011;54139;42.616;23.748;2023-06-22T06:07:42;7.73;;;6.23;;
67227;SDS011;54139;42.616;23.748;2023-06-22T06:10:08;7.75;;;7.22;;
67227;SDS011;54139;42.616;23.748;2023-06-22T06:12:34;7.18;;;6.57;;
67227;SDS011;54139;42.616;23.748;2023-06-22T06:15:00;7.40;;;6.70;;
67227;SDS011;54139;42.616;23.748;2023-06-22T06:17:25;7.00;;;6.60;;
67227;SDS011;54139;42.616;23.748;2023-06-22T06:19:51;8.50;;;7.90;;
67227;SDS011;54139;42.616;23.748;2023-06-22T06:22:17;9.38;;;8.07;;
67227;SDS011;54139;42.616;23.748;2023-06-22T06:24:43;10.30;;;9.40;;
67227;SDS011;54139;42.616;23.748;2023-06-22T06:27:09;9.75;;;9.15;;
67227;SDS011;54139;42.616;23.748;2023-06-22T06:29:34;9.68;;;8.88;;
67227;SDS011;54139;42.616;23.748;2023-06-22T06:32:00;9.70;;;8.93;;
67227;SDS011;54139;42.616;23.748;2023-06-22T06:34:25;9.68;;;8.98;;
67227;SDS011;54139;42.616;23.748;2023-06-22T06:36:51;9.10;;;8.50;;
67227;SDS011;54139;42.616;23.748;2023-06-22T06:39:16;8.52;;;7.90;;
67227;SDS011;54139;42.616;23.748;2023-06-22T06:41:42;9.15;;;8.55;;
67227;SDS011;54139;42.616;23.748;2023-06-22T06:44:07;9.32;;;8.73;;
67227;SDS011;54139;42.616;23.748;2023-06-22T06:46:33;9.27;;;8.55;;
67227;SDS011;54139;42.616;23.748;2023-06-22T06:48:58;10.60;;;9.73;;
67227;SDS011;54139;42.616;23.748;2023-06-22T06:51:23;10.50;;;9.80;;
67227;SDS011;54139;42.616;23.748;2023-06-22T06:53:49;10.57;;;9.73;;
67227;SDS011;54139;42.616;23.748;2023-06-22T06:56:14;9.05;;;8.48;;
67227;SDS011;54139;42.616;23.748;2023-06-22T06:58:43;10.30;;;9.43;;
67227;SDS011;54139;42.616;23.748;2023-06-22T07:01:10;9.02;;;8.15;;
67227;SDS011;54139;42.616;23.748;2023-06-22T07:03:37;7.82;;;7.30;;
67227;SDS011;54139;42.616;23.748;2023-06-22T07:06:02;8.18;;;7.68;;
67227;SDS011;54139;42.616;23.748;2023-06-22T07:08:28;8.80;;;8.18;;
67227;SDS011;54139;42.616;23.748;2023-06-22T07:10:53;9.27;;;8.48;;
67227;SDS011;54139;42.616;23.748;2023-06-22T07:13:19;9.65;;;8.60;;
67227;SDS011;54139;42.616;23.748;2023-06-22T07:15:45;10.35;;;9.50;;
67227;SDS011;54139;42.616;23.748;2023-06-22T07:18:10;9.32;;;8.70;;
67227;SDS011;54139;42.616;23.748;2023-06-22T07:20:36;10.32;;;9.63;;
67227;SDS011;54139;42.616;23.748;2023-06-22T07:23:01;9.77;;;8.98;;
67227;SDS011;54139;42.616;23.748;2023-06-22T07:25:26;11.52;;;9.63;;
67227;SDS011;54139;42.616;23.748;2023-06-22T07:30:29;11.50;;;10.20;;
67227;SDS011;54139;42.616;23.748;2023-06-22T07:32:55;10.02;;;9.18;;
67227;SDS011;54139;42.616;23.748;2023-06-22T07:35:21;9.82;;;9.23;;
67227;SDS011;54139;42.616;23.748;2023-06-22T07:37:46;9.80;;;9.02;;
67227;SDS011;54139;42.616;23.748;2023-06-22T07:40:12;9.82;;;8.77;;
67227;SDS011;54139;42.616;23.748;2023-06-22T07:42:38;9.00;;;8.40;;
67227;SDS011;54139;42.616;23.748;2023-06-22T07:45:03;8.93;;;8.23;;
67227;SDS011;54139;42.616;23.748;2023-06-22T07:47:30;8.63;;;8.02;;
67227;SDS011;54139;42.616;23.748;2023-06-22T07:50:00;9.10;;;8.40;;
67227;SDS011;54139;42.616;23.748;2023-06-22T07:52:26;9.73;;;9.02;;
67227;SDS011;54139;42.616;23.748;2023-06-22T07:54:52;9.27;;;8.65;;
67227;SDS011;54139;42.616;23.748;2023-06-22T07:57:17;9.38;;;8.45;;
67227;SDS011;54139;42.616;23.748;2023-06-22T07:59:43;9.32;;;8.48;;
67227;SDS011;54139;42.616;23.748;2023-06-22T08:02:09;8.32;;;7.72;;
67227;SDS011;54139;42.616;23.748;2023-06-22T08:04:34;8.93;;;7.82;;
67227;SDS011;54139;42.616;23.748;2023-06-22T08:07:00;8.52;;;7.93;;
67227;SDS011;54139;42.616;23.748;2023-06-22T08:09:30;9.18;;;8.10;;
67227;SDS011;54139;42.616;23.748;2023-06-22T08:11:57;9.65;;;8.90;;
67227;SDS011;54139;42.616;23.748;2023-06-22T08:14:26;9.65;;;8.75;;
67227;SDS011;54139;42.616;23.748;2023-06-22T08:16:51;10.82;;;9.88;;
67227;SDS011;54139;42.616;23.748;2023-06-22T08:19:17;9.20;;;8.52;;
67227;SDS011;54139;42.616;23.748;2023-06-22T08:21:43;12.02;;;9.65;;
67227;SDS011;54139;42.616;23.748;2023-06-22T08:24:08;11.23;;;8.88;;
67227;SDS011;54139;42.616;23.748;2023-06-22T08:26:34;9.73;;;8.82;;
67227;SDS011;54139;42.616;23.748;2023-06-22T08:29:04;11.03;;;8.90;;
67227;SDS011;54139;42.616;23.748;2023-06-22T08:31:31;9.93;;;9.02;;
67227;SDS011;54139;42.616;23.748;2023-06-22T08:33:58;9.27;;;8.65;;
67227;SDS011;54139;42.616;23.748;2023-06-22T08:36:24;8.57;;;7.88;;
67227;SDS011;54139;42.616;23.748;2023-06-22T08:38:49;8.35;;;7.35;;
67227;SDS011;54139;42.616;23.748;2023-06-22T08:41:16;8.57;;;7.85;;
67227;SDS011;54139;42.616;23.748;2023-06-22T08:43:42;8.07;;;7.30;;
67227;SDS011;54139;42.616;23.748;2023-06-22T08:46:09;8.05;;;7.47;;
67227;SDS011;54139;42.616;23.748;2023-06-22T08:48:35;8.20;;;7.60;;
67227;SDS011;54139;42.616;23.748;2023-06-22T08:51:00;8.32;;;7.72;;
67227;SDS011;54139;42.616;23.748;2023-06-22T08:53:26;8.45;;;7.68;;
67227;SDS011;54139;42.616;23.748;2023-06-22T08:55:51;7.75;;;7.05;;
67227;SDS011;54139;42.616;23.748;2023-06-22T08:58:17;7.80;;;6.93;;
67227;SDS011;54139;42.616;23.748;2023-06-22T09:00:43;8.30;;;7.60;;
67227;SDS011;54139;42.616;23.748;2023-06-22T09:03:08;7.45;;;6.95;;
67227;SDS011;54139;42.616;23.748;2023-06-22T09:05:34;9.00;;;7.80;;
67227;SDS011;54139;42.616;23.748;2023-06-22T09:07:59;7.78;;;7.07;;
67227;SDS011;54139;42.616;23.748;2023-06-22T09:10:25;7.28;;;6.78;;
67227;SDS011;54139;42.616;23.748;2023-06-22T09:12:51;9.68;;;6.40;;
67227;SDS011;54139;42.616;23.748;2023-06-22T09:15:16;7.28;;;6.72;;
67227;SDS011;54139;42.616;23.748;2023-06-22T09:17:42;7.95;;;7.35;;
67227;SDS011;54139;42.616;23.748;2023-06-22T09:20:07;8.52;;;7.65;;
67227;SDS011;54139;42.616;23.748;2023-06-22T09:22:35;7.22;;;6.82;;
67227;SDS011;54139;42.616;23.748;2023-06-22T09:25:01;7.32;;;6.78;;
67227;SDS011;54139;42.616;23.748;2023-06-22T09:28:04;7.32;;;6.90;;
67227;SDS011;54139;42.616;23.748;2023-06-22T09:30:45;7.43;;;6.82;;
67227;SDS011;54139;42.616;23.748;2023-06-22T09:33:10;7.72;;;7.22;;
67227;SDS011;54139;42.616;23.748;2023-06-22T09:35:36;7.53;;;7.03;;
67227;SDS011;54139;42.616;23.748;2023-06-22T09:38:01;7.43;;;6.82;;
67227;SDS011;54139;42.616;23.748;2023-06-22T09:40:27;8.23;;;7.45;;
67227;SDS011;54139;42.616;23.748;2023-06-22T09:42:52;7.70;;;7.10;;
67227;SDS011;54139;42.616;23.748;2023-06-22T09:45:18;7.68;;;7.10;;
67227;SDS011;54139;42.616;23.748;2023-06-22T09:47:43;7.80;;;7.30;;
67227;SDS011;54139;42.616;23.748;2023-06-22T09:50:09;7.68;;;6.95;;
67227;SDS011;54139;42.616;23.748;2023-06-22T09:52:35;7.93;;;7.20;;
67227;SDS011;54139;42.616;23.748;2023-06-22T09:55:00;7.47;;;6.97;;
67227;SDS011;54139;42.616;23.748;2023-06-22T09:57:26;10.35;;;6.97;;
67227;SDS011;54139;42.616;23.748;2023-06-22T09:59:51;7.43;;;6.80;;
67227;SDS011;54139;42.616;23.748;2023-06-22T10:02:16;6.95;;;6.35;;
67227;SDS011;54139;42.616;23.748;2023-06-22T10:04:42;7.38;;;6.78;;
67227;SDS011;54139;42.616;23.748;2023-06-22T10:07:07;7.47;;;6.97;;
67227;SDS011;54139;42.616;23.748;2023-06-22T10:09:34;7.72;;;6.93;;
67227;SDS011;54139;42.616;23.748;2023-06-22T10:11:59;7.43;;;6.93;;
67227;SDS011;54139;42.616;23.748;2023-06-22T10:14:24;7.35;;;6.70;;
67227;SDS011;54139;42.616;23.748;2023-06-22T10:16:52;6.53;;;6.13;;
67227;SDS011;54139;42.616;23.748;2023-06-22T10:19:17;7.30;;;6.63;;
67227;SDS011;54139;42.616;23.748;2023-06-22T10:21:43;7.55;;;7.05;;
67227;SDS011;54139;42.616;23.748;2023-06-22T10:24:08;7.22;;;6.63;;
67227;SDS011;54139;42.616;23.748;2023-06-22T10:26:34;10.20;;;6.72;;
67227;SDS011;54139;42.616;23.748;2023-06-22T10:29:01;7.25;;;6.75;;
67227;SDS011;54139;42.616;23.748;2023-06-22T10:31:28;7.78;;;7.25;;
67227;SDS011;54139;42.616;23.748;2023-06-22T10:33:54;8.10;;;7.50;;
67227;SDS011;54139;42.616;23.748;2023-06-22T10:36:20;7.60;;;7.10;;
67227;SDS011;54139;42.616;23.748;2023-06-22T10:38:46;7.53;;;7.03;;
67227;SDS011;54139;42.616;23.748;2023-06-22T10:41:13;8.00;;;7.35;;
67227;SDS011;54139;42.616;23.748;2023-06-22T10:43:38;8.02;;;7.50;;
67227;SDS011;54139;42.616;23.748;2023-06-22T10:46:04;7.78;;;7.03;;
67227;SDS011;54139;42.616;23.748;2023-06-22T10:48:29;8.05;;;7.40;;
67227;SDS011;54139;42.616;23.748;2023-06-22T10:50:55;7.85;;;7.30;;
67227;SDS011;54139;42.616;23.748;2023-06-22T10:53:20;7.68;;;7.18;;
67227;SDS011;54139;42.616;23.748;2023-06-22T10:55:46;7.68;;;7.07;;
67227;SDS011;54139;42.616;23.748;2023-06-22T10:58:12;8.10;;;7.60;;
67227;SDS011;54139;42.616;23.748;2023-06-22T11:00:37;7.80;;;7.30;;
67227;SDS011;54139;42.616;23.748;2023-06-22T11:03:03;6.72;;;6.32;;
67227;SDS011;54139;42.616;23.748;2023-06-22T11:05:28;7.97;;;7.32;;
67227;SDS011;54139;42.616;23.748;2023-06-22T11:07:54;7.43;;;6.72;;
67227;SDS011;54139;42.616;23.748;2023-06-22T11:10:19;7.75;;;7.15;;
67227;SDS011;54139;42.616;23.748;2023-06-22T11:12:45;7.85;;;7.15;;
67227;SDS011;54139;42.616;23.748;2023-06-22T11:15:10;7.70;;;7.20;;
67227;SDS011;54139;42.616;23.748;2023-06-22T11:17:36;8.23;;;7.43;;
67227;SDS011;54139;42.616;23.748;2023-06-22T11:20:01;7.25;;;6.55;;
67227;SDS011;54139;42.616;23.748;2023-06-22T11:22:30;7.63;;;7.03;;
67227;SDS011;54139;42.616;23.748;2023-06-22T11:24:58;8.53;;;7.77;;
67227;SDS011;54139;42.616;23.748;2023-06-22T11:27:24;7.78;;;7.28;;
67227;SDS011;54139;42.616;23.748;2023-06-22T11:29:49;8.63;;;7.47;;
67227;SDS011;54139;42.616;23.748;2023-06-22T11:32:15;8.10;;;7.50;;
67227;SDS011;54139;42.616;23.748;2023-06-22T11:34:40;7.95;;;7.45;;
67227;SDS011;54139;42.616;23.748;2023-06-22T11:37:06;8.10;;;7.50;;
67227;SDS011;54139;42.616;23.748;2023-06-22T11:39:31;8.00;;;7.40;;
67227;SDS011;54139;42.616;23.748;2023-06-22T11:41:57;8.15;;;7.65;;
67227;SDS011;54139;42.616;23.748;2023-06-22T11:44:22;8.80;;;8.10;;
67227;SDS011;54139;42.616;23.748;2023-06-22T11:46:48;8.10;;;7.55;;
67227;SDS011;54139;42.616;23.748;2023-06-22T11:49:13;8.07;;;7.57;;
67227;SDS011;54139;42.616;23.748;2023-06-22T11:51:39;7.85;;;7.35;;
67227;SDS011;54139;42.616;23.748;2023-06-22T11:54:04;7.60;;;7.10;;
67227;SDS011;54139;42.616;23.748;2023-06-22T11:56:30;8.23;;;7.57;;
67227;SDS011;54139;42.616;23.748;2023-06-22T11:58:55;7.88;;;7.13;;
67227;SDS011;54139;42.616;23.748;2023-06-22T12:01:21;8.38;;;7.68;;
67227;SDS011;54139;42.616;23.748;2023-06-22T12:03:46;8.27;;;7.68;;
67227;SDS011;54139;42.616;23.748;2023-06-22T12:06:13;8.30;;;7.60;;
67227;SDS011;54139;42.616;23.748;2023-06-22T12:08:38;7.63;;;6.95;;
67227;SDS011;54139;42.616;23.748;2023-06-22T12:11:04;7.75;;;7.18;;
67227;SDS011;54139;42.616;23.748;2023-06-22T12:13:30;7.78;;;7.18;;
67227;SDS011;54139;42.616;23.748;2023-06-22T12:15:56;7.72;;;7.13;;
67227;SDS011;54139;42.616;23.748;2023-06-22T12:18:22;8.25;;;7.65;;
67227;SDS011;54139;42.616;23.748;2023-06-22T12:20:47;7.95;;;7.35;;
67227;SDS011;54139;42.616;23.748;2023-06-22T12:23:14;8.00;;;7.35;;
67227;SDS011;54139;42.616;23.748;2023-06-22T12:25:40;8.35;;;7.85;;
67227;SDS011;54139;42.616;23.748;2023-06-22T12:28:05;8.55;;;8.00;;
67227;SDS011;54139;42.616;23.748;2023-06-22T12:30:32;8.88;;;8.18;;
67227;SDS011;54139;42.616;23.748;2023-06-22T12:32:59;9.37;;;8.67;;
67227;SDS011;54139;42.616;23.748;2023-06-22T12:35:24;8.85;;;8.25;;
67227;SDS011;54139;42.616;23.748;2023-06-22T12:37:50;8.25;;;7.70;;
67227;SDS011;54139;42.616;23.748;2023-06-22T12:40:15;8.13;;;7.53;;
67227;SDS011;54139;42.616;23.748;2023-06-22T12:42:41;7.65;;;7.07;;
67227;SDS011;54139;42.616;23.748;2023-06-22T12:45:07;8.50;;;7.80;;
67227;SDS011;54139;42.616;23.748;2023-06-22T12:47:33;7.30;;;6.90;;
67227;SDS011;54139;42.616;23.748;2023-06-22T12:49:59;7.93;;;7.32;;
67227;SDS011;54139;42.616;23.748;2023-06-22T12:52:24;7.90;;;7.40;;
67227;SDS011;54139;42.616;23.748;2023-06-22T12:54:50;8.60;;;7.90;;
67227;SDS011;54139;42.616;23.748;2023-06-22T12:57:17;8.15;;;7.65;;
67227;SDS011;54139;42.616;23.748;2023-06-22T12:59:44;8.25;;;7.70;;
67227;SDS011;54139;42.616;23.748;2023-06-22T13:02:10;9.00;;;8.38;;
67227;SDS011;54139;42.616;23.748;2023-06-22T13:04:35;7.28;;;6.78;;
67227;SDS011;54139;42.616;23.748;2023-06-22T13:07:00;8.00;;;7.35;;
67227;SDS011;54139;42.616;23.748;2023-06-22T13:09:26;6.95;;;6.35;;
67227;SDS011;54139;42.616;23.748;2023-06-22T13:11:51;8.15;;;7.55;;
67227;SDS011;54139;42.616;23.748;2023-06-22T13:14:17;8.07;;;7.57;;
67227;SDS011;54139;42.616;23.748;2023-06-22T13:16:43;8.88;;;8.00;;
67227;SDS011;54139;42.616;23.748;2023-06-22T13:19:08;8.68;;;8.07;;
67227;SDS011;54139;42.616;23.748;2023-06-22T13:21:34;8.07;;;7.47;;
67227;SDS011;54139;42.616;23.748;2023-06-22T13:23:59;7.70;;;7.20;;
67227;SDS011;54139;42.616;23.748;2023-06-22T13:26:26;8.93;;;8.23;;
67227;SDS011;54139;42.616;23.748;2023-06-22T13:28:53;8.32;;;7.65;;
67227;SDS011;54139;42.616;23.748;2023-06-22T13:31:19;8.25;;;7.65;;
67227;SDS011;54139;42.616;23.748;2023-06-22T13:33:44;8.82;;;7.90;;
67227;SDS011;54139;42.616;23.748;2023-06-22T13:36:12;7.70;;;7.20;;
67227;SDS011;54139;42.616;23.748;2023-06-22T13:38:38;7.57;;;7.07;;
67227;SDS011;54139;42.616;23.748;2023-06-22T13:41:04;8.40;;;7.90;;
67227;SDS011;54139;42.616;23.748;2023-06-22T13:43:30;8.68;;;8.00;;
67227;SDS011;54139;42.616;23.748;2023-06-22T13:45:56;8.60;;;7.95;;
67227;SDS011;54139;42.616;23.748;2023-06-22T13:48:21;8.68;;;7.93;;
67227;SDS011;54139;42.616;23.748;2023-06-22T13:50:48;8.75;;;8.05;;
67227;SDS011;54139;42.616;23.748;2023-06-22T13:53:14;8.60;;;7.90;;
67227;SDS011;54139;42.616;23.748;2023-06-22T13:55:39;8.30;;;7.70;;
67227;SDS011;54139;42.616;23.748;2023-06-22T13:58:05;8.10;;;7.53;;
67227;SDS011;54139;42.616;23.748;2023-06-22T14:00:30;9.82;;;8.93;;
67227;SDS011;54139;42.616;23.748;2023-06-22T14:02:55;9.35;;;8.43;;
67227;SDS011;54139;42.616;23.748;2023-06-22T14:05:21;9.90;;;9.07;;
67227;SDS011;54139;42.616;23.748;2023-06-22T14:07:46;9.25;;;8.38;;
67227;SDS011;54139;42.616;23.748;2023-06-22T14:10:12;9.35;;;8.52;;
67227;SDS011;54139;42.616;23.748;2023-06-22T14:12:37;8.68;;;8.07;;
67227;SDS011;54139;42.616;23.748;2023-06-22T14:15:03;8.95;;;8.15;;
67227;SDS011;54139;42.616;23.748;2023-06-22T14:17:29;9.30;;;8.40;;
67227;SDS011;54139;42.616;23.748;2023-06-22T14:19:55;9.45;;;8.65;;
67227;SDS011;54139;42.616;23.748;2023-06-22T14:22:21;9.68;;;8.77;;
67227;SDS011;54139;42.616;23.748;2023-06-22T14:24:47;9.40;;;8.65;;
67227;SDS011;54139;42.616;23.748;2023-06-22T14:27:13;9.45;;;8.48;;
67227;SDS011;54139;42.616;23.748;2023-06-22T14:29:39;8.80;;;7.97;;
67227;SDS011;54139;42.616;23.748;2023-06-22T14:32:04;9.77;;;8.32;;
67227;SDS011;54139;42.616;23.748;2023-06-22T14:34:31;9.65;;;8.88;;
67227;SDS011;54139;42.616;23.748;2023-06-22T14:36:57;11.95;;;8.15;;